Terminal Aerodrome Forecast
Issued by NWS Jackson, MS

Home | Current Version | Previous Version | Text Only | Print | Product List | Glossary On
Versions: 1 2 3 4 5 6 7 8 9 10 11 12 13 14
744
FTUS44 KJAN 290934 AAA
TAFHBG
TAF AMD
KHBG 290934Z 2910/3006 18015G25KT 3SM +RA BKN015 OVC050
     FM291100 14006KT P6SM SHRA VCTS SCT025CB BKN050
     FM292300 16005KT P6SM BKN025=

USA.gov is the U.S. government's official web portal to all federal, state and local government web resources and services.